sensor_id;sensor_type;location;lat;lon;timestamp;pressure;altitude;pressure_sealevel;temperature;humidity
63665;BME280;49820;33.966;73.390;2022-09-16T00:01:29;78320.44;;;14.63;100.00
63665;BME280;49820;33.966;73.390;2022-09-16T00:03:58;78331.91;;;14.61;100.00
63665;BME280;49820;33.966;73.390;2022-09-16T00:06:29;78324.59;;;14.60;100.00
63665;BME280;49820;33.966;73.390;2022-09-16T00:08:59;78323.03;;;14.65;100.00
63665;BME280;49820;33.966;73.390;2022-09-16T00:11:31;78315.13;;;14.61;100.00
63665;BME280;49820;33.966;73.390;2022-09-16T00:14:03;78333.16;;;14.79;100.00
63665;BME280;49820;33.966;73.390;2022-09-16T00:16:32;78304.66;;;14.55;100.00
63665;BME280;49820;33.966;73.390;2022-09-16T00:19:02;78334.56;;;14.78;100.00
63665;BME280;49820;33.966;73.390;2022-09-16T00:21:31;78328.41;;;14.65;100.00
63665;BME280;49820;33.966;73.390;2022-09-16T00:24:00;78326.84;;;14.70;100.00
63665;BME280;49820;33.966;73.390;2022-09-16T00:26:29;78324.41;;;14.64;100.00
63665;BME280;49820;33.966;73.390;2022-09-16T00:28:58;78314.03;;;14.56;100.00
63665;BME280;49820;33.966;73.390;2022-09-16T00:31:27;78304.88;;;14.34;100.00
63665;BME280;49820;33.966;73.390;2022-09-16T00:33:57;78337.44;;;14.42;100.00
63665;BME280;49820;33.966;73.390;2022-09-16T00:36:25;78329.69;;;14.34;100.00
63665;BME280;49820;33.966;73.390;2022-09-16T00:38:55;78341.00;;;14.37;100.00
63665;BME280;49820;33.966;73.390;2022-09-16T00:41:27;78332.06;;;14.26;100.00
63665;BME280;49820;33.966;73.390;2022-09-16T00:44:05;78328.47;;;14.31;100.00
63665;BME280;49820;33.966;73.390;2022-09-16T00:46:43;78349.47;;;14.43;100.00
63665;BME280;49820;33.966;73.390;2022-09-16T00:49:17;78350.63;;;14.48;100.00
63665;BME280;49820;33.966;73.390;2022-09-16T00:51:50;78316.13;;;14.22;100.00
63665;BME280;49820;33.966;73.390;2022-09-16T00:54:21;78350.22;;;14.42;100.00
63665;BME280;49820;33.966;73.390;2022-09-16T00:56:54;78340.34;;;14.36;100.00
63665;BME280;49820;33.966;73.390;2022-09-16T00:59:36;78339.94;;;14.46;100.00
63665;BME280;49820;33.966;73.390;2022-09-16T01:02:09;78340.63;;;14.62;100.00
63665;BME280;49820;33.966;73.390;2022-09-16T01:07:38;78333.53;;;14.85;100.00
63665;BME280;49820;33.966;73.390;2022-09-16T01:10:12;78344.06;;;15.06;100.00
63665;BME280;49820;33.966;73.390;2022-09-16T01:12:48;78334.78;;;15.03;100.00
63665;BME280;49820;33.966;73.390;2022-09-16T01:15:18;78344.91;;;15.17;100.00
63665;BME280;49820;33.966;73.390;2022-09-16T01:20:54;78349.47;;;15.50;100.00
63665;BME280;49820;33.966;73.390;2022-09-16T01:26:44;78348.28;;;15.62;100.00
63665;BME280;49820;33.966;73.390;2022-09-16T01:32:18;78345.09;;;15.87;100.00
63665;BME280;49820;33.966;73.390;2022-09-16T01:40:53;78358.06;;;16.12;100.00
63665;BME280;49820;33.966;73.390;2022-09-16T01:44:17;78337.88;;;16.25;100.00
63665;BME280;49820;33.966;73.390;2022-09-16T01:47:49;78350.06;;;16.52;100.00
63665;BME280;49820;33.966;73.390;2022-09-16T01:50:12;78349.13;;;16.57;100.00
63665;BME280;49820;33.966;73.390;2022-09-16T01:52:53;78363.81;;;16.88;100.00
63665;BME280;49820;33.966;73.390;2022-09-16T01:55:35;78361.59;;;17.05;100.00
63665;BME280;49820;33.966;73.390;2022-09-16T01:58:16;78354.53;;;17.25;100.00
63665;BME280;49820;33.966;73.390;2022-09-16T02:00:47;78358.03;;;17.48;100.00
63665;BME280;49820;33.966;73.390;2022-09-16T02:03:22;78360.50;;;17.52;100.00
63665;BME280;49820;33.966;73.390;2022-09-16T02:05:57;78358.59;;;17.64;100.00
63665;BME280;49820;33.966;73.390;2022-09-16T02:11:05;78350.41;;;17.91;100.00
63665;BME280;49820;33.966;73.390;2022-09-16T02:13:48;78360.34;;;17.95;100.00
63665;BME280;49820;33.966;73.390;2022-09-16T02:16:41;78348.22;;;18.06;100.00
63665;BME280;49820;33.966;73.390;2022-09-16T02:19:15;78351.47;;;18.09;100.00
63665;BME280;49820;33.966;73.390;2022-09-16T02:21:49;78344.00;;;18.22;100.00
63665;BME280;49820;33.966;73.390;2022-09-16T02:24:20;78338.72;;;18.68;100.00
63665;BME280;49820;33.966;73.390;2022-09-16T02:26:57;78364.81;;;19.33;100.00
63665;BME280;49820;33.966;73.390;2022-09-16T02:29:32;78360.22;;;19.66;100.00
63665;BME280;49820;33.966;73.390;2022-09-16T02:32:07;78362.31;;;19.99;100.00
63665;BME280;49820;33.966;73.390;2022-09-16T02:34:45;78364.81;;;20.14;97.82
63665;BME280;49820;33.966;73.390;2022-09-16T02:37:27;78348.72;;;20.33;100.00
63665;BME280;49820;33.966;73.390;2022-09-16T02:40:02;78340.53;;;20.23;98.69
63665;BME280;49820;33.966;73.390;2022-09-16T02:42:33;78347.38;;;20.66;100.00
63665;BME280;49820;33.966;73.390;2022-09-16T02:45:03;78352.19;;;21.08;93.64
63665;BME280;49820;33.966;73.390;2022-09-16T02:47:46;78358.41;;;21.28;80.15
63665;BME280;49820;33.966;73.390;2022-09-16T02:53:08;78361.34;;;21.77;86.52
63665;BME280;49820;33.966;73.390;2022-09-16T02:55:57;78373.53;;;22.29;100.00
63665;BME280;49820;33.966;73.390;2022-09-16T02:58:30;78370.75;;;22.10;88.75
63665;BME280;49820;33.966;73.390;2022-09-16T03:01:01;78368.25;;;21.55;88.16
63665;BME280;49820;33.966;73.390;2022-09-16T03:03:31;78384.88;;;20.85;93.24
63665;BME280;49820;33.966;73.390;2022-09-16T03:08:43;78378.59;;;21.31;91.82
63665;BME280;49820;33.966;73.390;2022-09-16T03:11:22;78385.69;;;21.79;90.96
63665;BME280;49820;33.966;73.390;2022-09-16T03:28:23;78392.69;;;20.46;100.00
63665;BME280;49820;33.966;73.390;2022-09-16T03:31:10;78395.03;;;19.85;100.00
63665;BME280;49820;33.966;73.390;2022-09-16T03:36:36;78385.84;;;19.56;100.00
63665;BME280;49820;33.966;73.390;2022-09-16T03:39:09;78367.97;;;19.61;100.00
63665;BME280;49820;33.966;73.390;2022-09-16T03:41:39;78364.63;;;19.25;100.00
63665;BME280;49820;33.966;73.390;2022-09-16T03:44:11;78366.56;;;19.73;100.00
63665;BME280;49820;33.966;73.390;2022-09-16T03:46:43;78361.81;;;19.27;100.00
63665;BME280;49820;33.966;73.390;2022-09-16T03:49:18;78377.56;;;19.12;100.00
63665;BME280;49820;33.966;73.390;2022-09-16T03:51:51;78347.84;;;19.46;100.00
63665;BME280;49820;33.966;73.390;2022-09-16T03:55:05;78368.69;;;20.62;100.00
63665;BME280;49820;33.966;73.390;2022-09-16T03:57:41;78374.38;;;20.58;100.00
63665;BME280;49820;33.966;73.390;2022-09-16T04:00:23;78372.03;;;20.51;100.00
63665;BME280;49820;33.966;73.390;2022-09-16T04:02:57;78377.50;;;20.28;100.00
63665;BME280;49820;33.966;73.390;2022-09-16T04:05:57;78364.16;;;20.13;100.00
63665;BME280;49820;33.966;73.390;2022-09-16T04:08:35;78375.13;;;20.11;100.00
63665;BME280;49820;33.966;73.390;2022-09-16T04:11:24;78379.25;;;20.44;100.00
63665;BME280;49820;33.966;73.390;2022-09-16T04:13:56;78372.69;;;20.63;100.00
63665;BME280;49820;33.966;73.390;2022-09-16T04:16:33;78368.84;;;20.70;100.00
63665;BME280;49820;33.966;73.390;2022-09-16T04:19:27;78370.22;;;20.48;100.00
63665;BME280;49820;33.966;73.390;2022-09-16T04:22:16;78387.09;;;21.04;100.00
63665;BME280;49820;33.966;73.390;2022-09-16T04:25:06;78375.88;;;20.99;100.00
63665;BME280;49820;33.966;73.390;2022-09-16T04:27:38;78376.72;;;20.64;100.00
63665;BME280;49820;33.966;73.390;2022-09-16T04:30:14;78389.19;;;20.37;100.00
63665;BME280;49820;33.966;73.390;2022-09-16T04:33:03;78375.56;;;20.27;100.00
63665;BME280;49820;33.966;73.390;2022-09-16T04:39:07;78390.84;;;20.98;100.00
63665;BME280;49820;33.966;73.390;2022-09-16T04:41:49;78393.81;;;20.83;100.00
63665;BME280;49820;33.966;73.390;2022-09-16T04:44:26;78380.16;;;20.51;100.00
63665;BME280;49820;33.966;73.390;2022-09-16T04:47:22;78388.19;;;20.43;100.00
63665;BME280;49820;33.966;73.390;2022-09-16T04:50:05;78384.09;;;19.97;100.00
63665;BME280;49820;33.966;73.390;2022-09-16T04:52:49;78396.38;;;19.73;100.00
63665;BME280;49820;33.966;73.390;2022-09-16T04:55:26;78400.13;;;19.67;100.00
63665;BME280;49820;33.966;73.390;2022-09-16T04:57:58;78388.91;;;19.73;100.00
63665;BME280;49820;33.966;73.390;2022-09-16T05:01:06;78392.97;;;20.42;100.00
63665;BME280;49820;33.966;73.390;2022-09-16T05:04:13;78384.09;;;20.31;100.00
63665;BME280;49820;33.966;73.390;2022-09-16T05:07:19;78384.19;;;20.52;100.00
63665;BME280;49820;33.966;73.390;2022-09-16T05:09:51;78374.28;;;20.81;100.00
63665;BME280;49820;33.966;73.390;2022-09-16T05:12:39;78379.09;;;21.02;100.00
63665;BME280;49820;33.966;73.390;2022-09-16T05:15:16;78389.06;;;21.05;100.00
63665;BME280;49820;33.966;73.390;2022-09-16T05:18:25;78372.50;;;21.52;100.00
63665;BME280;49820;33.966;73.390;2022-09-16T05:21:09;78376.63;;;21.51;99.69
63665;BME280;49820;33.966;73.390;2022-09-16T05:23:45;78366.28;;;21.64;99.31
63665;BME280;49820;33.966;73.390;2022-09-16T05:26:23;78357.59;;;21.72;100.00
63665;BME280;49820;33.966;73.390;2022-09-16T05:29:06;78381.94;;;21.42;100.00
63665;BME280;49820;33.966;73.390;2022-09-16T05:31:47;78369.25;;;21.60;100.00
63665;BME280;49820;33.966;73.390;2022-09-16T05:34:39;78367.28;;;21.80;99.64
63665;BME280;49820;33.966;73.390;2022-09-16T05:37:21;78367.38;;;21.99;97.72
63665;BME280;49820;33.966;73.390;2022-09-16T05:40:29;78372.34;;;22.67;91.44
63665;BME280;49820;33.966;73.390;2022-09-16T05:43:29;78356.72;;;23.83;97.10
63665;BME280;49820;33.966;73.390;2022-09-16T05:49:15;78363.59;;;23.82;89.62
63665;BME280;49820;33.966;73.390;2022-09-16T05:51:57;78354.50;;;23.66;82.36
63665;BME280;49820;33.966;73.390;2022-09-16T05:54:46;78355.03;;;24.24;77.32
63665;BME280;49820;33.966;73.390;2022-09-16T05:57:55;78346.66;;;22.64;89.29
63665;BME280;49820;33.966;73.390;2022-09-16T06:00:34;78357.16;;;21.99;90.53
63665;BME280;49820;33.966;73.390;2022-09-16T06:03:03;78362.34;;;21.82;92.12
63665;BME280;49820;33.966;73.390;2022-09-16T06:05:33;78345.75;;;23.55;89.78
63665;BME280;49820;33.966;73.390;2022-09-16T06:08:02;78336.56;;;23.31;84.03
63665;BME280;49820;33.966;73.390;2022-09-16T06:10:40;78341.81;;;24.46;80.21
63665;BME280;49820;33.966;73.390;2022-09-16T06:13:09;78338.56;;;25.34;76.98
63665;BME280;49820;33.966;73.390;2022-09-16T06:15:38;78362.06;;;24.49;74.30
63665;BME280;49820;33.966;73.390;2022-09-16T06:18:07;78363.25;;;24.33;81.72
63665;BME280;49820;33.966;73.390;2022-09-16T06:20:36;78344.00;;;25.25;84.82
63665;BME280;49820;33.966;73.390;2022-09-16T06:23:07;78349.53;;;25.51;70.44
63665;BME280;49820;33.966;73.390;2022-09-16T06:25:37;78338.91;;;25.56;70.11
63665;BME280;49820;33.966;73.390;2022-09-16T06:28:06;78322.16;;;26.37;69.44
63665;BME280;49820;33.966;73.390;2022-09-16T06:30:37;78339.28;;;26.79;67.21
63665;BME280;49820;33.966;73.390;2022-09-16T06:33:06;78329.66;;;27.53;60.80
63665;BME280;49820;33.966;73.390;2022-09-16T06:35:36;78329.78;;;26.78;61.78
63665;BME280;49820;33.966;73.390;2022-09-16T06:38:05;78332.88;;;27.23;59.45
63665;BME280;49820;33.966;73.390;2022-09-16T06:40:34;78354.19;;;25.44;66.67
63665;BME280;49820;33.966;73.390;2022-09-16T06:43:02;78331.94;;;25.22;70.88
63665;BME280;49820;33.966;73.390;2022-09-16T06:45:33;78343.59;;;25.74;68.10
63665;BME280;49820;33.966;73.390;2022-09-16T06:48:01;78335.59;;;24.56;72.87
63665;BME280;49820;33.966;73.390;2022-09-16T06:50:30;78334.97;;;25.09;77.45
63665;BME280;49820;33.966;73.390;2022-09-16T06:53:00;78341.25;;;24.63;75.56
63665;BME280;49820;33.966;73.390;2022-09-16T06:55:29;78323.97;;;25.98;72.09
63665;BME280;49820;33.966;73.390;2022-09-16T06:57:58;78335.38;;;26.09;67.94
63665;BME280;49820;33.966;73.390;2022-09-16T07:00:27;78328.44;;;26.36;65.85
63665;BME280;49820;33.966;73.390;2022-09-16T07:03:01;78320.78;;;27.20;70.53
63665;BME280;49820;33.966;73.390;2022-09-16T07:05:30;78319.28;;;26.89;61.72
63665;BME280;49820;33.966;73.390;2022-09-16T07:07:58;78289.88;;;27.05;66.10
63665;BME280;49820;33.966;73.390;2022-09-16T07:10:27;78326.94;;;27.45;59.92
63665;BME280;49820;33.966;73.390;2022-09-16T07:13:00;78330.34;;;27.78;62.95
63665;BME280;49820;33.966;73.390;2022-09-16T07:15:31;78322.91;;;28.24;59.61
63665;BME280;49820;33.966;73.390;2022-09-16T07:18:09;78295.00;;;28.21;61.04
63665;BME280;49820;33.966;73.390;2022-09-16T07:20:37;78307.91;;;26.60;63.79
63665;BME280;49820;33.966;73.390;2022-09-16T07:23:06;78312.19;;;26.92;67.53
63665;BME280;49820;33.966;73.390;2022-09-16T07:25:35;78280.16;;;28.33;60.23
63665;BME280;49820;33.966;73.390;2022-09-16T07:28:21;78293.00;;;28.43;54.98
63665;BME280;49820;33.966;73.390;2022-09-16T07:30:50;78298.13;;;28.08;61.85
63665;BME280;49820;33.966;73.390;2022-09-16T07:33:20;78311.94;;;28.39;55.73
63665;BME280;49820;33.966;73.390;2022-09-16T07:35:48;78299.59;;;28.46;56.17
63665;BME280;49820;33.966;73.390;2022-09-16T07:38:18;78303.03;;;27.19;58.68
63665;BME280;49820;33.966;73.390;2022-09-16T07:40:47;78293.09;;;26.57;62.77
63665;BME280;49820;33.966;73.390;2022-09-16T07:43:16;78300.78;;;25.54;64.95
63665;BME280;49820;33.966;73.390;2022-09-16T07:45:45;78296.53;;;24.94;66.37
63665;BME280;49820;33.966;73.390;2022-09-16T07:48:14;78275.69;;;26.52;64.02
63665;BME280;49820;33.966;73.390;2022-09-16T07:50:42;78268.75;;;27.35;59.90
63665;BME280;49820;33.966;73.390;2022-09-16T07:53:11;78288.84;;;28.21;57.38
63665;BME280;49820;33.966;73.390;2022-09-16T07:55:40;78280.00;;;28.51;69.14
63665;BME280;49820;33.966;73.390;2022-09-16T07:58:09;78291.31;;;27.36;56.04
63665;BME280;49820;33.966;73.390;2022-09-16T08:00:38;78286.56;;;26.11;61.34
63665;BME280;49820;33.966;73.390;2022-09-16T08:03:07;78271.38;;;26.88;59.63
63665;BME280;49820;33.966;73.390;2022-09-16T08:05:37;78276.66;;;26.57;63.65
63665;BME280;49820;33.966;73.390;2022-09-16T08:08:06;78260.88;;;26.99;57.95
63665;BME280;49820;33.966;73.390;2022-09-16T08:10:35;78259.56;;;26.66;64.63
63665;BME280;49820;33.966;73.390;2022-09-16T08:13:08;78232.19;;;27.22;59.86
63665;BME280;49820;33.966;73.390;2022-09-16T08:15:37;78228.66;;;27.47;60.54
63665;BME280;49820;33.966;73.390;2022-09-16T08:18:06;78238.41;;;27.61;57.99
63665;BME280;49820;33.966;73.390;2022-09-16T08:20:36;78237.03;;;27.93;60.31
63665;BME280;49820;33.966;73.390;2022-09-16T08:23:05;78250.31;;;27.10;65.16
63665;BME280;49820;33.966;73.390;2022-09-16T08:25:34;78256.00;;;28.03;65.19
63665;BME280;49820;33.966;73.390;2022-09-16T08:28:03;78243.00;;;27.48;60.68
63665;BME280;49820;33.966;73.390;2022-09-16T08:30:32;78236.38;;;28.16;58.19
63665;BME280;49820;33.966;73.390;2022-09-16T08:33:04;78225.13;;;25.84;63.23
63665;BME280;49820;33.966;73.390;2022-09-16T08:35:34;78216.06;;;25.95;64.41
63665;BME280;49820;33.966;73.390;2022-09-16T08:38:03;78221.72;;;27.48;63.06
63665;BME280;49820;33.966;73.390;2022-09-16T08:40:34;78217.16;;;27.53;64.02
63665;BME280;49820;33.966;73.390;2022-09-16T08:43:25;78216.19;;;28.11;65.43
63665;BME280;49820;33.966;73.390;2022-09-16T08:46:05;78195.13;;;28.01;58.43
63665;BME280;49820;33.966;73.390;2022-09-16T08:51:26;78209.03;;;27.36;61.02
63665;BME280;49820;33.966;73.390;2022-09-16T08:54:22;78212.28;;;25.66;63.83
63665;BME280;49820;33.966;73.390;2022-09-16T08:56:54;78187.56;;;26.82;63.85
63665;BME280;49820;33.966;73.390;2022-09-16T08:59:31;78184.19;;;27.14;60.44
63665;BME280;49820;33.966;73.390;2022-09-16T09:02:19;78199.09;;;25.51;64.63
63665;BME280;49820;33.966;73.390;2022-09-16T09:04:52;78191.84;;;25.65;65.72
63665;BME280;49820;33.966;73.390;2022-09-16T09:12:55;78171.63;;;24.93;67.49
63665;BME280;49820;33.966;73.390;2022-09-16T09:21:14;78169.16;;;26.57;62.02
63665;BME280;49820;33.966;73.390;2022-09-16T09:27:03;78144.25;;;25.44;63.80
63665;BME280;49820;33.966;73.390;2022-09-16T09:29:53;78167.84;;;26.65;65.72
63665;BME280;49820;33.966;73.390;2022-09-16T09:32:57;78156.00;;;27.07;60.03
63665;BME280;49820;33.966;73.390;2022-09-16T09:38:32;78147.56;;;26.85;59.73
63665;BME280;49820;33.966;73.390;2022-09-16T09:41:35;78146.38;;;27.00;65.03
63665;BME280;49820;33.966;73.390;2022-09-16T09:44:40;78150.28;;;26.94;61.48
63665;BME280;49820;33.966;73.390;2022-09-16T09:47:22;78152.50;;;27.24;61.42
63665;BME280;49820;33.966;73.390;2022-09-16T09:50:01;78147.25;;;27.13;65.12
63665;BME280;49820;33.966;73.390;2022-09-16T09:52:47;78138.06;;;27.08;60.14
63665;BME280;49820;33.966;73.390;2022-09-16T09:55:22;78130.66;;;26.83;60.43
63665;BME280;49820;33.966;73.390;2022-09-16T10:00:37;78125.13;;;25.27;66.20
63665;BME280;49820;33.966;73.390;2022-09-16T10:03:11;78128.25;;;26.14;67.13
63665;BME280;49820;33.966;73.390;2022-09-16T10:05:45;78113.63;;;26.50;65.35
63665;BME280;49820;33.966;73.390;2022-09-16T10:08:24;78136.19;;;26.50;62.66
63665;BME280;49820;33.966;73.390;2022-09-16T10:11:00;78131.97;;;26.51;64.30
63665;BME280;49820;33.966;73.390;2022-09-16T10:13:30;78129.38;;;26.17;62.79
63665;BME280;49820;33.966;73.390;2022-09-16T10:16:20;78117.22;;;25.99;66.41
63665;BME280;49820;33.966;73.390;2022-09-16T10:19:06;78125.81;;;25.86;66.26
63665;BME280;49820;33.966;73.390;2022-09-16T10:21:43;78117.50;;;26.03;65.81
63665;BME280;49820;33.966;73.390;2022-09-16T10:24:38;78125.22;;;26.09;66.75
63665;BME280;49820;33.966;73.390;2022-09-16T10:27:26;78127.00;;;26.04;65.67
63665;BME280;49820;33.966;73.390;2022-09-16T10:30:17;78122.28;;;26.20;66.54
63665;BME280;49820;33.966;73.390;2022-09-16T10:35:24;78123.56;;;26.21;70.06
63665;BME280;49820;33.966;73.390;2022-09-16T10:38:06;78131.19;;;26.03;67.17
63665;BME280;49820;33.966;73.390;2022-09-16T10:40:55;78118.50;;;26.00;63.60
63665;BME280;49820;33.966;73.390;2022-09-16T10:43:26;78125.50;;;25.73;64.46
63665;BME280;49820;33.966;73.390;2022-09-16T10:45:57;78102.06;;;25.50;66.05
63665;BME280;49820;33.966;73.390;2022-09-16T10:48:28;78119.97;;;25.32;67.63
63665;BME280;49820;33.966;73.390;2022-09-16T10:51:01;78115.47;;;25.28;72.68
63665;BME280;49820;33.966;73.390;2022-09-16T10:53:36;78120.31;;;25.11;70.69
63665;BME280;49820;33.966;73.390;2022-09-16T10:56:19;78116.13;;;24.77;73.40
63665;BME280;49820;33.966;73.390;2022-09-16T10:58:49;78115.00;;;25.17;71.29
63665;BME280;49820;33.966;73.390;2022-09-16T11:02:20;78118.88;;;25.20;73.34
63665;BME280;49820;33.966;73.390;2022-09-16T11:19:12;78119.53;;;23.81;80.89
63665;BME280;49820;33.966;73.390;2022-09-16T11:22:09;78127.72;;;23.89;82.47
63665;BME280;49820;33.966;73.390;2022-09-16T11:24:57;78128.06;;;23.94;81.94
63665;BME280;49820;33.966;73.390;2022-09-16T11:30:22;78118.03;;;23.65;87.30
63665;BME280;49820;33.966;73.390;2022-09-16T11:58:38;78131.16;;;21.44;100.00
63665;BME280;49820;33.966;73.390;2022-09-16T12:04:28;78121.66;;;20.83;100.00
63665;BME280;49820;33.966;73.390;2022-09-16T12:10:07;78133.75;;;20.54;100.00
63665;BME280;49820;33.966;73.390;2022-09-16T12:12:54;78130.25;;;20.45;100.00
63665;BME280;49820;33.966;73.390;2022-09-16T12:18:29;78128.34;;;20.11;100.00
63665;BME280;49820;33.966;73.390;2022-09-16T12:21:28;78134.78;;;19.95;100.00
63665;BME280;49820;33.966;73.390;2022-09-16T12:30:07;78120.69;;;19.50;100.00
63665;BME280;49820;33.966;73.390;2022-09-16T12:33:05;78126.00;;;19.52;100.00
63665;BME280;49820;33.966;73.390;2022-09-16T12:35:53;78129.28;;;19.31;100.00
63665;BME280;49820;33.966;73.390;2022-09-16T12:38:24;78123.69;;;19.12;100.00
63665;BME280;49820;33.966;73.390;2022-09-16T12:44:16;78120.56;;;18.97;100.00
63665;BME280;49820;33.966;73.390;2022-09-16T12:47:17;78122.38;;;19.00;100.00
63665;BME280;49820;33.966;73.390;2022-09-16T13:01:25;78126.00;;;18.74;100.00
63665;BME280;49820;33.966;73.390;2022-09-16T13:04:03;78128.03;;;18.62;100.00
63665;BME280;49820;33.966;73.390;2022-09-16T13:06:39;78124.50;;;18.53;100.00
63665;BME280;49820;33.966;73.390;2022-09-16T13:12:21;78133.09;;;18.45;100.00
63665;BME280;49820;33.966;73.390;2022-09-16T13:15:23;78101.31;;;18.22;100.00
63665;BME280;49820;33.966;73.390;2022-09-16T13:17:53;78125.81;;;18.31;100.00
63665;BME280;49820;33.966;73.390;2022-09-16T13:20:41;78111.19;;;18.15;100.00
63665;BME280;49820;33.966;73.390;2022-09-16T13:23:28;78118.50;;;18.17;100.00
63665;BME280;49820;33.966;73.390;2022-09-16T13:26:04;78118.50;;;18.17;100.00
63665;BME280;49820;33.966;73.390;2022-09-16T13:28:39;78129.09;;;18.21;100.00
63665;BME280;49820;33.966;73.390;2022-09-16T13:31:28;78127.81;;;18.20;100.00
63665;BME280;49820;33.966;73.390;2022-09-16T13:34:15;78127.28;;;18.17;100.00
63665;BME280;49820;33.966;73.390;2022-09-16T13:36:44;78130.34;;;18.11;100.00
63665;BME280;49820;33.966;73.390;2022-09-16T13:39:30;78130.91;;;18.01;100.00
63665;BME280;49820;33.966;73.390;2022-09-16T13:42:16;78119.50;;;17.88;100.00
63665;BME280;49820;33.966;73.390;2022-09-16T13:44:48;78147.25;;;17.99;100.00
63665;BME280;49820;33.966;73.390;2022-09-16T13:47:28;78139.47;;;17.93;100.00
63665;BME280;49820;33.966;73.390;2022-09-16T13:50:11;78144.59;;;17.86;100.00
63665;BME280;49820;33.966;73.390;2022-09-16T13:52:42;78128.66;;;17.70;100.00
63665;BME280;49820;33.966;73.390;2022-09-16T13:55:25;78136.09;;;17.69;100.00
63665;BME280;49820;33.966;73.390;2022-09-16T14:03:28;78137.63;;;17.53;100.00
63665;BME280;49820;33.966;73.390;2022-09-16T14:12:11;78143.56;;;17.56;100.00
63665;BME280;49820;33.966;73.390;2022-09-16T14:14:45;78169.16;;;17.70;100.00
63665;BME280;49820;33.966;73.390;2022-09-16T14:17:39;78156.56;;;17.66;100.00
63665;BME280;49820;33.966;73.390;2022-09-16T14:20:14;78174.06;;;17.67;100.00
63665;BME280;49820;33.966;73.390;2022-09-16T14:22:44;78172.97;;;17.62;100.00
63665;BME280;49820;33.966;73.390;2022-09-16T14:25:31;78179.88;;;17.59;100.00
63665;BME280;49820;33.966;73.390;2022-09-16T14:28:20;78180.84;;;17.53;100.00
63665;BME280;49820;33.966;73.390;2022-09-16T14:30:57;78160.25;;;17.35;100.00
63665;BME280;49820;33.966;73.390;2022-09-16T14:33:31;78171.47;;;17.27;100.00
63665;BME280;49820;33.966;73.390;2022-09-16T14:36:50;78160.41;;;17.08;100.00
63665;BME280;49820;33.966;73.390;2022-09-16T14:39:21;78188.56;;;17.24;100.00
63665;BME280;49820;33.966;73.390;2022-09-16T14:41:59;78178.72;;;17.05;100.00
63665;BME280;49820;33.966;73.390;2022-09-16T14:44:43;78179.38;;;16.81;100.00
63665;BME280;49820;33.966;73.390;2022-09-16T14:47:27;78177.53;;;16.64;100.00
63665;BME280;49820;33.966;73.390;2022-09-16T14:50:24;78196.97;;;16.67;100.00
63665;BME280;49820;33.966;73.390;2022-09-16T14:53:02;78193.38;;;16.58;100.00
63665;BME280;49820;33.966;73.390;2022-09-16T14:55:33;78205.44;;;16.59;100.00
63665;BME280;49820;33.966;73.390;2022-09-16T14:58:05;78203.81;;;16.51;100.00
63665;BME280;49820;33.966;73.390;2022-09-16T15:00:57;78193.22;;;16.47;100.00
63665;BME280;49820;33.966;73.390;2022-09-16T15:04:01;78216.44;;;16.55;100.00
63665;BME280;49820;33.966;73.390;2022-09-16T15:06:40;78203.03;;;16.40;100.00
63665;BME280;49820;33.966;73.390;2022-09-16T15:11:54;78214.16;;;16.47;100.00
63665;BME280;49820;33.966;73.390;2022-09-16T15:14:25;78224.28;;;16.46;100.00
63665;BME280;49820;33.966;73.390;2022-09-16T15:17:00;78164.56;;;16.01;100.00
63665;BME280;49820;33.966;73.390;2022-09-16T15:19:35;78218.91;;;16.46;100.00
63665;BME280;49820;33.966;73.390;2022-09-16T15:22:13;78216.84;;;16.47;100.00
63665;BME280;49820;33.966;73.390;2022-09-16T15:24:50;78194.13;;;16.16;100.00
63665;BME280;49820;33.966;73.390;2022-09-16T15:27:28;78231.38;;;16.39;100.00
63665;BME280;49820;33.966;73.390;2022-09-16T15:29:59;78229.00;;;16.33;100.00
63665;BME280;49820;33.966;73.390;2022-09-16T15:32:28;78225.75;;;16.30;100.00
63665;BME280;49820;33.966;73.390;2022-09-16T15:35:21;78228.69;;;16.39;100.00
63665;BME280;49820;33.966;73.390;2022-09-16T15:37:52;78235.06;;;16.46;100.00
63665;BME280;49820;33.966;73.390;2022-09-16T15:43:13;78235.19;;;16.44;100.00
63665;BME280;49820;33.966;73.390;2022-09-16T15:45:55;78248.91;;;16.53;100.00
63665;BME280;49820;33.966;73.390;2022-09-16T15:48:29;78247.59;;;16.52;100.00
63665;BME280;49820;33.966;73.390;2022-09-16T15:54:17;78222.34;;;16.45;100.00
63665;BME280;49820;33.966;73.390;2022-09-16T15:59:45;78235.97;;;16.55;100.00
63665;BME280;49820;33.966;73.390;2022-09-16T16:02:33;78244.34;;;16.49;100.00
63665;BME280;49820;33.966;73.390;2022-09-16T16:05:09;78175.00;;;15.95;100.00
63665;BME280;49820;33.966;73.390;2022-09-16T16:07:48;78244.25;;;16.51;100.00
63665;BME280;49820;33.966;73.390;2022-09-16T16:10:21;78246.75;;;16.55;100.00
63665;BME280;49820;33.966;73.390;2022-09-16T16:12:52;78250.31;;;16.52;100.00
63665;BME280;49820;33.966;73.390;2022-09-16T16:15:27;78244.56;;;16.45;100.00
63665;BME280;49820;33.966;73.390;2022-09-16T16:18:02;78244.78;;;16.41;100.00
63665;BME280;49820;33.966;73.390;2022-09-16T16:20:35;78247.56;;;16.39;100.00
63665;BME280;49820;33.966;73.390;2022-09-16T16:23:05;78242.28;;;16.37;100.00
63665;BME280;49820;33.966;73.390;2022-09-16T16:25:36;78224.53;;;16.15;100.00
63665;BME280;49820;33.966;73.390;2022-09-16T16:28:05;78247.56;;;16.39;100.00
63665;BME280;49820;33.966;73.390;2022-09-16T16:30:34;78241.00;;;16.36;100.00
63665;BME280;49820;33.966;73.390;2022-09-16T16:33:06;78206.97;;;16.16;100.00
63665;BME280;49820;33.966;73.390;2022-09-16T16:35:35;78221.00;;;16.18;100.00